Time;durP1;ratioP1;P1;durP2;ratioP2;P2;SDS_P1;SDS_P2;PMS_P1;PMS_P2;Temp;Humidity;BMP_temperature;BMP_pressure;BME280_temperature;BME280_humidity;BME280_pressure;Samples;Min_cycle;Max_cycle;Signal;HPM_P1;HPM_P2
2023/03/05 00:01:33;;;;;;;3.53;1.48;;;2.90;99.90;;;;;;5056954;28;20579;-81
2023/03/05 00:03:59;;;;;;;4.03;1.30;;;3.00;99.90;;;;;;5050613;28;20049;-79
2023/03/05 00:06:27;;;;;;;4.32;1.05;;;2.90;99.90;;;;;;5048724;28;20044;-80
2023/03/05 00:08:55;;;;;;;3.65;1.10;;;3.00;99.90;;;;;;5059953;28;20401;-82
2023/03/05 00:11:21;;;;;;;4.47;1.35;;;2.90;99.90;;;;;;5064865;28;20068;-82
2023/03/05 00:13:50;;;;;;;3.42;1.13;;;3.20;99.90;;;;;;5069264;28;20097;-81
2023/03/05 00:16:16;;;;;;;2.58;1.00;;;2.90;99.90;;;;;;5064218;28;20036;-80
2023/03/05 00:18:42;;;;;;;4.82;1.63;;;2.90;99.90;;;;;;5026272;28;20622;-80
2023/03/05 00:21:18;;;;;;;4.57;1.10;;;2.90;99.90;;;;;;5062056;28;20071;-80
2023/03/05 00:23:44;;;;;;;;;;;3.00;99.90;;;;;;5075849;28;20090;-80
2023/03/05 00:26:09;;;;;;;3.13;1.17;;;3.00;99.90;;;;;;5066914;28;19956;-81
2023/03/05 00:28:35;;;;;;;2.67;0.80;;;3.00;99.90;;;;;;5066057;28;20049;-81
2023/03/05 00:31:01;;;;;;;4.28;1.08;;;3.00;99.90;;;;;;5031129;28;20037;-81
2023/03/05 00:33:27;;;;;;;2.40;0.98;;;3.00;99.90;;;;;;5069513;28;20110;-80
2023/03/05 00:35:53;;;;;;;5.75;1.58;;;3.00;99.90;;;;;;5057959;28;20076;-83
2023/03/05 00:38:18;;;;;;;5.70;1.50;;;3.00;99.90;;;;;;5033585;28;20053;-83
2023/03/05 00:40:44;;;;;;;4.13;1.00;;;3.20;99.90;;;;;;5057326;28;20068;-79
2023/03/05 00:43:10;;;;;;;2.72;1.20;;;2.90;99.90;;;;;;5074134;28;20053;-83
2023/03/05 00:45:36;;;;;;;2.85;1.02;;;2.90;99.90;;;;;;5056308;28;20128;-81
2023/03/05 00:48:03;;;;;;;3.72;1.02;;;3.20;99.90;;;;;;5049812;28;20055;-82
2023/03/05 00:50:28;;;;;;;2.42;0.90;;;2.90;99.90;;;;;;5045113;28;20056;-83
2023/03/05 00:52:54;;;;;;;2.90;0.93;;;2.90;99.90;;;;;;5041221;28;20106;-83
2023/03/05 00:55:20;;;;;;;4.30;1.15;;;2.90;99.90;;;;;;5058705;28;20071;-83
2023/03/05 00:57:46;;;;;;;6.40;1.10;;;2.90;99.90;;;;;;5048659;28;20049;-82
2023/03/05 01:00:13;;;;;;;4.00;1.00;;;2.80;99.90;;;;;;5041536;28;20389;-84
2023/03/05 01:02:39;;;;;;;4.28;1.20;;;2.80;99.90;;;;;;5043579;28;20033;-83
2023/03/05 01:05:05;;;;;;;2.42;1.00;;;2.90;99.90;;;;;;5042183;28;20128;-82
2023/03/05 01:07:31;;;;;;;3.38;1.17;;;2.80;99.90;;;;;;5060675;28;20052;-83
2023/03/05 01:09:56;;;;;;;3.25;1.45;;;2.80;99.90;;;;;;5015883;28;20185;-82
2023/03/05 01:12:22;;;;;;;5.55;1.35;;;2.80;99.90;;;;;;5049265;28;20049;-82
2023/03/05 01:14:48;;;;;;;3.13;1.05;;;2.80;99.90;;;;;;5040043;28;20037;-81
2023/03/05 01:17:14;;;;;;;4.40;1.08;;;2.80;99.90;;;;;;5072783;28;20134;-81
2023/03/05 01:19:39;;;;;;;3.03;1.00;;;2.80;99.90;;;;;;5039971;28;20095;-81
2023/03/05 01:22:05;;;;;;;4.65;1.20;;;2.80;99.90;;;;;;5037737;28;20051;-84
2023/03/05 01:24:31;;;;;;;2.05;1.00;;;2.80;99.90;;;;;;5052615;28;20044;-81
2023/03/05 01:26:57;;;;;;;5.75;1.15;;;2.80;99.90;;;;;;5058602;28;20041;-82
2023/03/05 01:29:23;;;;;;;3.90;1.00;;;2.80;99.90;;;;;;5057460;28;20071;-83
2023/03/05 01:31:49;;;;;;;1.70;0.80;;;2.80;99.90;;;;;;5062296;28;20037;-81
2023/03/05 01:34:14;;;;;;;2.88;1.08;;;2.80;99.90;;;;;;5058533;28;20124;-80
2023/03/05 01:36:41;;;;;;;5.35;1.25;;;2.80;99.90;;;;;;5041518;28;20033;-80
2023/03/05 01:39:07;;;;;;;4.50;1.20;;;2.80;99.90;;;;;;5040389;28;20123;-83
2023/03/05 01:41:33;;;;;;;2.65;0.90;;;2.70;99.90;;;;;;5031418;28;20052;-81
2023/03/05 01:43:59;;;;;;;5.60;1.30;;;2.70;99.90;;;;;;5072431;28;20709;-82
2023/03/05 01:46:34;;;;;;;2.90;1.02;;;2.70;99.90;;;;;;5069410;28;20504;-81
2023/03/05 01:49:07;;;;;;;4.03;0.82;;;2.70;99.90;;;;;;5056729;28;20066;-81
2023/03/05 01:51:52;;;;;;;2.78;0.98;;;2.70;99.90;;;;;;5057915;28;20045;-81
2023/03/05 01:54:21;;;;;;;1.77;0.77;;;2.70;99.90;;;;;;5073293;28;20072;-81
2023/03/05 01:56:49;;;;;;;2.47;1.17;;;2.60;99.90;;;;;;5057907;28;20425;-81
2023/03/05 01:59:16;;;;;;;2.45;0.95;;;2.60;99.90;;;;;;5067128;28;20049;-82
2023/03/05 02:01:45;;;;;;;2.33;0.90;;;2.60;99.90;;;;;;5068025;28;20043;-81
2023/03/05 02:04:15;;;;;;;1.67;1.10;;;2.60;99.90;;;;;;5058175;28;20040;-80
2023/03/05 02:06:42;;;;;;;3.63;1.00;;;2.60;99.90;;;;;;5039822;28;20087;-81
2023/03/05 02:09:08;;;;;;;2.65;1.00;;;2.70;99.90;;;;;;5072483;28;20171;-82
2023/03/05 02:11:34;;;;;;;3.92;1.10;;;2.70;99.90;;;;;;5056352;28;20043;-81
2023/03/05 02:14:02;;;;;;;3.50;1.58;;;2.60;99.90;;;;;;5060655;28;20045;-80
2023/03/05 02:16:34;;;;;;;3.38;1.15;;;2.60;99.90;;;;;;5053856;28;20044;-81
2023/03/05 02:19:02;;;;;;;2.88;1.00;;;2.60;99.90;;;;;;5039186;28;20091;-81
2023/03/05 02:21:36;;;;;;;3.22;1.08;;;2.70;99.90;;;;;;5045175;28;20140;-83
2023/03/05 02:24:01;;;;;;;3.33;1.02;;;2.70;99.90;;;;;;5063225;28;20103;-82
2023/03/05 02:26:27;;;;;;;2.25;0.75;;;2.70;99.90;;;;;;5057921;28;20045;-81
2023/03/05 02:28:57;;;;;;;3.75;1.10;;;2.70;99.90;;;;;;5042830;28;20104;-83
2023/03/05 02:31:25;;;;;;;4.00;1.10;;;2.70;99.90;;;;;;5056193;28;20041;-83
2023/03/05 02:33:52;;;;;;;4.03;1.40;;;3.00;99.90;;;;;;5041505;28;20381;-81
2023/03/05 02:36:19;;;;;;;4.82;1.20;;;2.60;99.90;;;;;;5040445;28;20048;-80
2023/03/05 02:38:45;;;;;;;4.10;1.08;;;2.60;99.90;;;;;;5050480;28;20087;-82
2023/03/05 02:41:12;;;;;;;2.78;1.00;;;2.50;99.90;;;;;;5058211;28;20053;-82
2023/03/05 02:43:37;;;;;;;3.80;1.27;;;2.40;99.90;;;;;;5042733;28;20122;-82
2023/03/05 02:46:04;;;;;;;3.10;1.30;;;2.40;99.90;;;;;;5046208;28;20044;-82
2023/03/05 02:48:29;;;;;;;2.65;0.98;;;2.60;99.90;;;;;;5058648;28;20052;-81
2023/03/05 02:50:56;;;;;;;5.20;1.17;;;2.30;99.90;;;;;;5078647;28;20501;-81
2023/03/05 02:53:22;;;;;;;2.10;0.90;;;2.30;99.90;;;;;;5061625;28;20088;-82
2023/03/05 02:55:49;;;;;;;3.33;1.23;;;2.40;99.90;;;;;;5040499;28;20118;-81
2023/03/05 02:58:15;;;;;;;4.45;1.00;;;2.10;99.90;;;;;;5070321;28;20068;-82
2023/03/05 03:00:41;;;;;;;4.10;0.80;;;2.10;99.90;;;;;;5051023;28;20071;-81
2023/03/05 03:03:07;;;;;;;3.53;1.02;;;2.50;99.90;;;;;;5042505;28;20119;-80
2023/03/05 03:05:34;;;;;;;3.40;1.10;;;2.00;99.90;;;;;;5073539;28;20555;-80
2023/03/05 03:08:00;;;;;;;5.72;1.48;;;2.00;99.90;;;;;;5075930;28;20078;-79
2023/03/05 03:10:26;;;;;;;5.30;1.27;;;2.30;99.90;;;;;;5038593;28;20045;-79
2023/03/05 03:12:51;;;;;;;3.33;1.08;;;2.00;99.90;;;;;;5047950;28;20576;-82
2023/03/05 03:15:17;;;;;;;4.55;1.02;;;1.90;99.90;;;;;;5038604;28;20109;-80
2023/03/05 03:17:43;;;;;;;4.03;1.08;;;1.80;99.90;;;;;;5055193;28;20037;-80
2023/03/05 03:20:12;;;;;;;3.70;1.10;;;1.80;99.90;;;;;;5055247;28;20047;-80
2023/03/05 03:22:39;;;;;;;2.13;1.10;;;1.80;99.90;;;;;;5055705;28;20048;-80
2023/03/05 03:25:05;;;;;;;4.05;1.23;;;1.90;99.90;;;;;;5022359;28;20088;-79
2023/03/05 03:27:31;;;;;;;4.68;1.38;;;1.80;99.90;;;;;;5054255;28;20566;-80
2023/03/05 03:30:01;;;;;;;2.10;1.10;;;1.80;99.90;;;;;;5057129;28;20048;-79
2023/03/05 03:32:27;;;;;;;2.60;1.13;;;1.80;99.90;;;;;;5042036;28;20483;-81
2023/03/05 03:34:53;;;;;;;4.18;1.50;;;2.20;99.90;;;;;;5066207;28;20093;-82
2023/03/05 03:37:19;;;;;;;4.82;1.10;;;1.90;99.90;;;;;;5047937;28;20040;-82
2023/03/05 03:39:45;;;;;;;4.50;1.10;;;2.00;99.90;;;;;;5060533;28;20041;-81
2023/03/05 03:42:10;;;;;;;3.10;1.23;;;1.90;99.90;;;;;;5062814;28;20044;-81
2023/03/05 03:44:36;;;;;;;5.13;1.40;;;2.30;99.90;;;;;;5040670;28;20508;-83
2023/03/05 03:47:02;;;;;;;3.80;1.45;;;2.00;99.90;;;;;;5066158;28;20044;-81
2023/03/05 03:49:27;;;;;;;3.85;1.42;;;2.00;99.90;;;;;;5053889;28;20044;-82
2023/03/05 03:51:54;;;;;;;6.20;1.60;;;2.00;99.90;;;;;;5056570;28;20168;-81
2023/03/05 03:54:21;;;;;;;2.80;1.20;;;2.10;99.90;;;;;;5066710;28;20431;-80
2023/03/05 03:56:46;;;;;;;2.45;1.30;;;2.00;99.90;;;;;;5054752;28;20084;-81
2023/03/05 03:59:13;;;;;;;2.75;1.13;;;2.40;99.90;;;;;;5055162;28;20052;-81
2023/03/05 04:01:39;;;;;;;4.50;1.23;;;2.50;99.90;;;;;;5045505;28;20052;-82
2023/03/05 04:04:05;;;;;;;4.03;1.33;;;2.00;99.90;;;;;;5049919;28;20055;-82
2023/03/05 04:06:31;;;;;;;5.45;1.30;;;2.00;99.90;;;;;;5040833;28;20135;-81
2023/03/05 04:08:57;;;;;;;2.55;1.60;;;2.10;99.90;;;;;;5040041;28;20090;-82
2023/03/05 04:11:23;;;;;;;7.82;2.65;;;2.10;99.90;;;;;;5031364;28;20044;-83
2023/03/05 04:13:49;;;;;;;4.25;1.45;;;2.10;99.90;;;;;;5051404;28;20041;-83
2023/03/05 04:16:15;;;;;;;3.70;1.50;;;2.20;99.90;;;;;;5038501;28;20072;-79
2023/03/05 04:18:42;;;;;;;1.67;0.98;;;2.30;99.90;;;;;;5056906;28;20087;-82
2023/03/05 04:21:08;;;;;;;4.50;1.20;;;2.20;99.90;;;;;;5042414;28;20103;-82
2023/03/05 04:23:34;;;;;;;3.53;1.25;;;2.20;99.90;;;;;;5049004;28;20060;-83
2023/03/05 04:26:00;;;;;;;3.15;1.10;;;2.20;99.90;;;;;;5067115;28;20061;-81
2023/03/05 04:28:25;;;;;;;3.50;1.00;;;2.20;99.90;;;;;;5054103;28;20076;-83
2023/03/05 04:30:51;;;;;;;2.63;1.13;;;2.20;99.90;;;;;;5026398;28;20045;-82
2023/03/05 04:33:17;;;;;;;3.05;1.27;;;2.20;99.90;;;;;;5045273;28;20067;-82
2023/03/05 04:35:43;;;;;;;2.38;1.13;;;2.20;99.90;;;;;;5050175;28;20369;-82
2023/03/05 04:38:09;;;;;;;3.30;1.20;;;2.20;99.90;;;;;;5068520;28;20049;-83
2023/03/05 04:40:35;;;;;;;4.80;1.60;;;2.40;99.90;;;;;;5062530;28;20102;-81
2023/03/05 04:43:01;;;;;;;4.75;1.52;;;2.20;99.90;;;;;;5058927;28;20114;-82
2023/03/05 04:45:27;;;;;;;2.50;1.10;;;2.20;99.90;;;;;;5057421;28;20104;-80
2023/03/05 04:47:53;;;;;;;1.98;1.00;;;2.40;99.90;;;;;;5059537;28;20048;-82
2023/03/05 04:50:19;;;;;;;3.28;1.38;;;2.20;99.90;;;;;;5056242;28;20500;-82
2023/03/05 04:52:45;;;;;;;4.72;2.20;;;2.20;99.90;;;;;;5045578;28;20041;-84
2023/03/05 04:55:12;;;;;;;6.25;1.30;;;2.70;99.90;;;;;;5078725;28;20059;-82
2023/03/05 04:57:38;;;;;;;4.03;1.40;;;2.20;99.90;;;;;;5076404;28;20036;-82
2023/03/05 05:00:13;;;;;;;3.33;0.95;;;2.20;99.90;;;;;;5059301;28;20049;-82
2023/03/05 05:02:40;;;;;;;4.25;0.98;;;2.20;99.90;;;;;;5075082;28;20416;-82
2023/03/05 05:05:07;;;;;;;2.65;0.68;;;2.30;99.90;;;;;;5041779;28;20531;-82
2023/03/05 05:07:33;;;;;;;2.47;0.80;;;2.20;99.90;;;;;;5076247;28;20087;-82
2023/03/05 05:09:59;;;;;;;2.72;1.02;;;2.60;99.90;;;;;;5044592;28;20048;-82
2023/03/05 05:12:28;;;;;;;4.13;0.93;;;2.20;99.90;;;;;;5026966;28;20064;-81
2023/03/05 05:14:54;;;;;;;2.60;0.80;;;2.20;99.90;;;;;;5074379;28;20050;-80
2023/03/05 05:17:19;;;;;;;2.45;0.90;;;2.40;99.90;;;;;;5049695;28;20045;-80
2023/03/05 05:19:45;;;;;;;2.92;0.90;;;2.30;99.90;;;;;;5057163;28;20108;-81
2023/03/05 05:22:11;;;;;;;2.55;0.93;;;2.30;99.90;;;;;;5041612;28;20060;-84
2023/03/05 05:24:36;;;;;;;2.55;0.80;;;2.20;99.90;;;;;;5024005;28;20050;-81
2023/03/05 05:27:02;;;;;;;3.55;0.90;;;2.60;99.90;;;;;;5057335;28;20523;-79
2023/03/05 05:29:28;;;;;;;1.92;1.05;;;2.30;99.90;;;;;;5041428;28;20049;-82
2023/03/05 05:31:55;;;;;;;2.10;0.98;;;2.30;99.90;;;;;;5042879;28;20084;-81
2023/03/05 05:34:21;;;;;;;1.52;0.63;;;2.30;99.90;;;;;;5058819;28;20083;-81
2023/03/05 05:36:46;;;;;;;1.73;0.70;;;2.30;99.90;;;;;;5056181;28;20041;-82
2023/03/05 05:39:12;;;;;;;4.15;0.93;;;2.30;99.90;;;;;;5058719;28;20481;-83
2023/03/05 05:41:38;;;;;;;1.55;0.50;;;2.30;99.90;;;;;;5054093;28;20077;-83
2023/03/05 05:44:03;;;;;;;2.03;0.93;;;2.20;99.90;;;;;;5036797;28;20052;-83
2023/03/05 05:46:29;;;;;;;1.83;0.90;;;2.40;99.90;;;;;;5053328;28;20049;-81
2023/03/05 05:48:55;;;;;;;4.22;0.90;;;2.50;99.90;;;;;;5056528;28;20539;-81
2023/03/05 05:51:23;;;;;;;3.50;0.80;;;2.20;99.90;;;;;;5064904;28;20033;-82
2023/03/05 05:53:49;;;;;;;2.13;1.10;;;2.20;99.90;;;;;;5060092;28;20036;-83
2023/03/05 05:56:15;;;;;;;1.55;0.68;;;2.20;99.90;;;;;;5071005;28;20041;-83
2023/03/05 05:58:42;;;;;;;1.88;0.77;;;2.20;99.90;;;;;;5059744;28;20040;-81
2023/03/05 06:01:23;;;;;;;1.13;0.60;;;2.20;99.90;;;;;;5065953;28;20037;-84
2023/03/05 06:03:49;;;;;;;1.05;0.60;;;2.20;99.90;;;;;;5057177;28;20041;-83
2023/03/05 06:06:18;;;;;;;2.10;0.70;;;2.10;99.90;;;;;;5046894;28;20077;-81
2023/03/05 06:08:44;;;;;;;1.75;0.80;;;2.10;99.90;;;;;;5070598;28;20049;-80
2023/03/05 06:11:10;;;;;;;1.10;0.60;;;2.20;99.90;;;;;;5055526;28;20536;-81
2023/03/05 06:13:37;;;;;;;1.75;0.70;;;2.10;99.90;;;;;;5025092;28;20057;-83
2023/03/05 06:16:11;;;;;;;3.35;0.80;;;2.10;99.90;;;;;;5044399;28;20091;-81
2023/03/05 06:18:37;;;;;;;4.18;0.80;;;2.10;99.90;;;;;;5057670;28;20041;-80
2023/03/05 06:21:11;;;;;;;1.50;0.60;;;2.10;99.90;;;;;;5043912;28;20036;-82
2023/03/05 06:23:37;;;;;;;2.42;0.90;;;2.10;99.90;;;;;;5055167;28;20037;-77
2023/03/05 06:26:06;;;;;;;1.60;0.70;;;2.10;99.90;;;;;;5041329;28;20055;-79
2023/03/05 06:28:32;;;;;;;2.15;0.60;;;2.10;99.90;;;;;;5041313;28;20059;-77
2023/03/05 06:31:00;;;;;;;1.48;0.60;;;2.10;99.90;;;;;;5058752;28;20654;-79
2023/03/05 06:33:25;;;;;;;3.40;0.93;;;2.30;99.90;;;;;;5042347;28;20041;-79
2023/03/05 06:35:51;;;;;;;2.95;0.85;;;2.10;99.90;;;;;;5049841;28;20044;-81
2023/03/05 06:38:17;;;;;;;2.00;0.70;;;2.10;99.90;;;;;;5043475;28;20051;-80
2023/03/05 06:40:42;;;;;;;2.03;0.68;;;2.10;99.90;;;;;;5057838;28;20049;-78
2023/03/05 06:43:08;;;;;;;1.83;0.60;;;2.40;99.90;;;;;;5040066;28;20401;-77
2023/03/05 06:45:34;;;;;;;2.53;0.63;;;2.10;99.90;;;;;;5038819;28;20593;-76
2023/03/05 06:47:59;;;;;;;2.10;0.80;;;2.30;99.90;;;;;;5053310;28;20045;-78
2023/03/05 06:50:25;;;;;;;2.65;0.80;;;2.20;99.90;;;;;;5068860;28;20049;-79
2023/03/05 06:52:51;;;;;;;2.10;0.80;;;2.30;99.90;;;;;;5045026;28;20085;-79
2023/03/05 06:55:17;;;;;;;4.55;0.95;;;2.20;99.90;;;;;;5068877;28;20104;-76
2023/03/05 06:57:43;;;;;;;1.65;0.80;;;2.50;99.90;;;;;;5076939;28;20048;-79
2023/03/05 07:00:10;;;;;;;1.55;0.80;;;2.20;99.90;;;;;;5057187;28;20049;-77
2023/03/05 07:02:37;;;;;;;2.05;0.90;;;2.20;99.90;;;;;;5058761;28;20049;-78
2023/03/05 07:05:03;;;;;;;2.95;0.80;;;2.50;99.90;;;;;;5062130;28;20574;-78
2023/03/05 07:07:29;;;;;;;3.55;0.80;;;2.20;99.90;;;;;;5078428;28;20052;-77
2023/03/05 07:09:55;;;;;;;1.85;0.80;;;2.20;99.90;;;;;;5074638;28;20059;-77
2023/03/05 07:12:21;;;;;;;3.33;0.90;;;2.20;99.90;;;;;;5058464;28;20068;-78
2023/03/05 07:14:46;;;;;;;2.03;0.85;;;2.30;99.90;;;;;;5062858;28;20082;-79
2023/03/05 07:17:14;;;;;;;1.77;0.80;;;2.30;99.90;;;;;;5056580;28;20041;-79
2023/03/05 07:19:40;;;;;;;1.73;0.70;;;2.30;99.90;;;;;;5038555;28;20120;-80
2023/03/05 07:22:07;;;;;;;3.47;0.88;;;2.60;99.90;;;;;;5039514;28;20044;-77
2023/03/05 07:24:33;;;;;;;1.30;0.80;;;2.30;99.90;;;;;;5042687;28;20066;-78
2023/03/05 07:26:59;;;;;;;1.83;0.70;;;2.30;99.90;;;;;;5059199;28;20041;-78
2023/03/05 07:29:26;;;;;;;2.42;0.80;;;2.50;99.90;;;;;;5055959;28;20053;-81
2023/03/05 07:31:53;;;;;;;2.75;0.85;;;2.40;99.90;;;;;;5037921;28;20048;-80
2023/03/05 07:34:19;;;;;;;3.72;0.80;;;2.50;99.90;;;;;;5038055;28;20085;-79
2023/03/05 07:36:49;;;;;;;2.83;0.93;;;2.40;99.90;;;;;;5065549;28;20159;-78
2023/03/05 07:39:16;;;;;;;2.55;0.93;;;2.40;99.90;;;;;;5051643;28;20053;-78
2023/03/05 07:41:41;;;;;;;4.15;1.25;;;2.50;99.90;;;;;;5039226;28;20057;-77
2023/03/05 07:44:09;;;;;;;2.30;0.90;;;2.60;99.90;;;;;;5054964;28;20455;-79
2023/03/05 07:46:35;;;;;;;3.03;1.00;;;2.60;99.90;;;;;;5055808;28;20103;-78
2023/03/05 07:49:00;;;;;;;2.30;0.85;;;2.60;99.90;;;;;;5041817;28;20057;-79
2023/03/05 07:51:26;;;;;;;2.95;0.90;;;2.90;99.90;;;;;;5043037;28;20139;-79
2023/03/05 07:53:55;;;;;;;5.53;1.30;;;2.70;99.90;;;;;;5065172;28;20037;-80
2023/03/05 07:56:47;;;;;;;2.70;0.80;;;2.80;99.90;;;;;;5038868;28;20701;-80
2023/03/05 07:59:13;;;;;;;3.30;0.85;;;2.90;99.90;;;;;;5071671;28;20064;-79
2023/03/05 08:01:39;;;;;;;2.63;0.70;;;3.00;99.90;;;;;;5065061;28;20049;-79
2023/03/05 08:04:06;;;;;;;2.78;1.10;;;3.00;99.90;;;;;;5036679;28;20048;-81
2023/03/05 08:06:32;;;;;;;2.97;0.98;;;3.10;99.90;;;;;;5044455;28;20080;-80
2023/03/05 08:08:58;;;;;;;3.38;1.00;;;3.10;99.90;;;;;;5043337;28;20052;-79
2023/03/05 08:11:25;;;;;;;3.22;0.82;;;3.20;99.90;;;;;;5076193;28;20064;-81
2023/03/05 08:13:50;;;;;;;2.10;1.05;;;3.20;99.90;;;;;;5048436;28;20071;-78
2023/03/05 08:16:20;;;;;;;2.38;0.80;;;3.30;99.90;;;;;;5064005;28;20075;-80
2023/03/05 08:18:47;;;;;;;4.88;1.20;;;3.40;99.90;;;;;;5047771;28;20072;-80
2023/03/05 08:21:39;;;;;;;3.63;1.15;;;3.50;99.90;;;;;;5053989;28;20104;-79
2023/03/05 08:24:07;;;;;;;3.97;0.90;;;3.50;99.90;;;;;;5085957;28;20073;-80
2023/03/05 08:26:35;;;;;;;3.88;1.00;;;3.50;99.90;;;;;;5058972;28;20057;-79
2023/03/05 08:29:02;;;;;;;2.75;0.90;;;3.50;99.90;;;;;;5078911;28;20556;-79
2023/03/05 08:31:29;;;;;;;6.00;1.40;;;3.50;99.90;;;;;;5075038;28;20041;-79
2023/03/05 08:33:57;;;;;;;3.33;0.80;;;3.60;99.90;;;;;;5060050;28;20118;-79
2023/03/05 08:36:22;;;;;;;1.75;0.85;;;3.60;99.90;;;;;;5055816;28;20041;-80
2023/03/05 08:38:49;;;;;;;3.65;1.05;;;3.60;99.90;;;;;;5037326;28;20056;-81
2023/03/05 08:41:16;;;;;;;4.93;1.10;;;3.80;99.90;;;;;;5024755;28;20112;-78
2023/03/05 08:43:42;;;;;;;4.20;0.80;;;3.90;99.90;;;;;;5058111;28;20037;-80
2023/03/05 08:46:08;;;;;;;3.95;0.95;;;4.00;99.90;;;;;;5075676;28;20101;-79
2023/03/05 08:48:34;;;;;;;2.15;1.15;;;4.00;99.90;;;;;;5045206;28;20048;-80
2023/03/05 08:51:12;;;;;;;1.80;0.80;;;4.10;99.90;;;;;;5058976;28;20227;-80
2023/03/05 08:53:39;;;;;;;1.48;0.80;;;4.10;99.90;;;;;;5057156;28;20053;-80
2023/03/05 08:56:05;;;;;;;3.75;0.80;;;4.10;99.90;;;;;;5058866;28;20064;-81
2023/03/05 08:58:31;;;;;;;2.40;0.75;;;4.10;99.90;;;;;;5066398;28;20462;-79
2023/03/05 09:00:57;;;;;;;5.97;1.10;;;4.20;99.90;;;;;;5070670;28;20058;-80
2023/03/05 09:03:23;;;;;;;1.85;0.80;;;4.20;99.90;;;;;;5057750;28;20057;-81
2023/03/05 09:05:50;;;;;;;3.75;1.27;;;4.20;99.90;;;;;;5059444;28;20052;-81
2023/03/05 09:08:16;;;;;;;4.57;1.08;;;4.20;99.90;;;;;;5041208;28;20053;-80
2023/03/05 09:10:42;;;;;;;3.05;1.42;;;4.40;99.90;;;;;;5055823;28;20052;-79
2023/03/05 09:13:08;;;;;;;7.28;1.17;;;4.30;99.90;;;;;;5062756;28;20481;-81
2023/03/05 09:15:34;;;;;;;2.65;0.98;;;4.50;99.90;;;;;;5052464;28;20076;-82
2023/03/05 09:18:00;;;;;;;2.70;1.13;;;4.60;99.90;;;;;;5057664;28;20045;-82
2023/03/05 09:20:26;;;;;;;3.67;1.05;;;4.70;99.90;;;;;;5039958;28;20041;-80
2023/03/05 09:22:52;;;;;;;2.30;1.00;;;4.80;99.90;;;;;;5036781;28;20052;-80
2023/03/05 09:25:17;;;;;;;1.83;1.00;;;4.80;99.90;;;;;;5057272;28;20099;-79
2023/03/05 09:27:44;;;;;;;5.85;0.88;;;4.90;99.90;;;;;;5054846;28;20051;-80
2023/03/05 09:30:12;;;;;;;3.38;1.33;;;5.00;99.90;;;;;;5057131;28;20055;-81
2023/03/05 09:32:38;;;;;;;3.90;0.70;;;5.10;99.90;;;;;;5071077;28;20072;-79
2023/03/05 09:35:04;;;;;;;1.70;0.70;;;5.20;99.90;;;;;;5060501;28;20037;-80
2023/03/05 09:37:30;;;;;;;4.38;0.85;;;5.30;99.90;;;;;;5062399;28;20103;-79
2023/03/05 09:39:56;;;;;;;5.30;2.15;;;5.40;99.90;;;;;;5058623;28;20076;-84
2023/03/05 09:42:28;;;;;;;3.55;0.75;;;5.40;99.90;;;;;;5040912;28;20044;-81
2023/03/05 09:45:24;;;;;;;2.65;1.10;;;5.40;99.90;;;;;;5054971;28;20044;-81
2023/03/05 09:47:54;;;;;;;1.95;0.85;;;5.40;99.90;;;;;;5057650;28;20044;-78
2023/03/05 09:50:35;;;;;;;2.25;0.95;;;5.40;99.90;;;;;;5053893;28;20051;-82
2023/03/05 09:53:38;;;;;;;5.75;0.82;;;5.50;99.90;;;;;;5055638;28;20051;-79
2023/03/05 09:56:11;;;;;;;3.70;0.65;;;5.60;99.90;;;;;;5056765;28;20047;-81
2023/03/05 09:58:40;;;;;;;2.30;0.65;;;5.60;99.90;;;;;;5038519;28;20041;-82
2023/03/05 10:01:17;;;;;;;3.63;1.00;;;5.70;99.90;;;;;;5059323;28;20037;-80
2023/03/05 10:03:57;;;;;;;5.13;0.82;;;5.90;99.90;;;;;;5064117;28;20103;-81
2023/03/05 10:06:28;;;;;;;3.72;0.82;;;6.20;99.90;;;;;;5037892;28;20057;-81
2023/03/05 10:09:02;;;;;;;3.22;0.68;;;6.50;99.90;;;;;;5056475;28;20076;-81
2023/03/05 10:11:42;;;;;;;4.25;0.88;;;6.60;99.90;;;;;;5038872;28;20052;-79
2023/03/05 10:14:26;;;;;;;2.67;0.55;;;6.70;99.90;;;;;;5038695;28;20048;-82
2023/03/05 10:17:00;;;;;;;2.63;1.35;;;6.90;99.90;;;;;;5056437;28;20047;-79
2023/03/05 10:19:38;;;;;;;1.65;0.60;;;7.00;99.90;;;;;;5054470;28;20049;-80
2023/03/05 10:22:28;;;;;;;2.53;0.70;;;7.10;99.90;;;;;;5065148;28;20079;-81
2023/03/05 10:25:16;;;;;;;5.78;0.95;;;7.20;99.90;;;;;;5039279;28;20057;-80
2023/03/05 10:27:49;;;;;;;7.15;0.80;;;7.20;99.90;;;;;;5053451;28;20077;-80
2023/03/05 10:30:34;;;;;;;2.58;0.55;;;7.00;99.90;;;;;;5056483;28;20045;-84
2023/03/05 10:33:11;;;;;;;1.40;0.60;;;6.70;99.90;;;;;;5046102;28;20103;-82
2023/03/05 10:36:00;;;;;;;1.75;0.60;;;6.60;99.90;;;;;;5054775;28;20041;-81
2023/03/05 10:38:51;;;;;;;4.82;0.60;;;6.50;99.90;;;;;;5051337;28;20053;-81
2023/03/05 10:41:34;;;;;;;1.48;0.63;;;6.50;99.90;;;;;;5067214;28;20075;-80
2023/03/05 10:44:14;;;;;;;2.67;0.70;;;6.30;99.90;;;;;;5056922;28;20130;-79
2023/03/05 10:46:40;;;;;;;2.33;0.75;;;6.30;99.90;;;;;;5043880;28;20511;-81
2023/03/05 10:49:23;;;;;;;2.42;0.70;;;6.20;99.90;;;;;;5053998;28;20111;-82
2023/03/05 10:52:15;;;;;;;2.80;0.68;;;6.10;99.90;;;;;;5039321;28;20053;-81
2023/03/05 10:54:43;;;;;;;1.55;0.50;;;5.90;99.90;;;;;;5054491;28;20049;-78
2023/03/05 10:57:22;;;;;;;0.50;0.40;;;5.70;99.90;;;;;;5034719;28;20061;-81
2023/03/05 11:00:06;;;;;;;1.55;0.50;;;5.50;99.90;;;;;;5049647;28;20049;-81
2023/03/05 11:02:32;;;;;;;1.38;0.50;;;5.40;99.90;;;;;;5057022;28;20124;-80
2023/03/05 11:04:59;;;;;;;1.25;0.60;;;5.30;99.90;;;;;;5060267;28;20459;-79
2023/03/05 11:07:25;;;;;;;1.05;0.50;;;5.30;99.90;;;;;;5074120;28;20048;-80
2023/03/05 11:10:05;;;;;;;0.73;0.30;;;5.20;99.90;;;;;;5070698;28;20056;-80
2023/03/05 11:12:36;;;;;;;1.25;0.60;;;5.20;99.90;;;;;;5055860;28;20097;-80
2023/03/05 11:15:08;;;;;;;1.50;0.40;;;5.20;99.90;;;;;;5064546;28;20037;-81
2023/03/05 11:17:37;;;;;;;1.85;0.40;;;5.40;99.90;;;;;;5038700;28;20060;-81
2023/03/05 11:20:25;;;;;;;1.25;0.50;;;6.00;99.90;;;;;;5040330;28;20063;-86
2023/03/05 11:23:16;;;;;;;1.45;0.60;;;6.10;99.90;;;;;;5052929;28;20075;-81
2023/03/05 11:26:15;;;;;;;1.17;0.50;;;6.50;99.90;;;;;;5058078;28;20044;-80
2023/03/05 11:28:56;;;;;;;0.82;0.50;;;6.70;99.90;;;;;;5039799;28;20104;-79
2023/03/05 11:31:25;;;;;;;1.58;0.60;;;6.70;99.90;;;;;;5063869;28;20036;-80
2023/03/05 11:34:05;;;;;;;2.35;0.60;;;6.60;99.90;;;;;;5066495;28;20059;-79
2023/03/05 11:36:42;;;;;;;2.05;0.50;;;6.30;99.90;;;;;;5036884;28;20048;-79
2023/03/05 11:39:16;;;;;;;1.58;0.60;;;5.90;99.90;;;;;;5061678;28;20101;-80
2023/03/05 11:41:43;;;;;;;0.85;0.70;;;5.60;99.90;;;;;;5054191;28;20092;-77
2023/03/05 11:44:19;;;;;;;1.52;0.40;;;5.30;99.90;;;;;;5037345;28;20041;-78
2023/03/05 11:46:49;;;;;;;1.02;0.45;;;5.20;99.90;;;;;;5059924;28;20045;-78
2023/03/05 11:49:20;;;;;;;1.90;0.57;;;5.20;99.90;;;;;;5052757;28;20041;-77
2023/03/05 11:52:19;;;;;;;1.70;0.60;;;5.30;99.90;;;;;;5061180;28;20500;-77
2023/03/05 11:55:06;;;;;;;1.92;0.80;;;5.50;99.90;;;;;;5065620;28;20033;-77
2023/03/05 11:57:50;;;;;;;1.40;0.60;;;5.60;99.90;;;;;;5036037;28;20063;-78
2023/03/05 12:00:20;;;;;;;3.20;0.65;;;5.80;99.90;;;;;;5055315;28;20051;-81
2023/03/05 12:02:51;;;;;;;1.83;0.60;;;5.90;99.90;;;;;;5053339;28;20051;-79
2023/03/05 12:05:18;;;;;;;1.15;0.50;;;6.00;99.90;;;;;;5070711;28;20085;-79
2023/03/05 12:07:52;;;;;;;1.45;0.60;;;6.00;99.90;;;;;;5040790;28;20037;-78
2023/03/05 12:10:19;;;;;;;2.65;0.60;;;6.00;99.90;;;;;;5053225;28;20052;-81
2023/03/05 12:12:57;;;;;;;0.98;0.60;;;6.10;99.90;;;;;;5065391;28;20564;-82
2023/03/05 12:15:38;;;;;;;2.05;0.63;;;6.10;99.90;;;;;;5049822;28;20052;-80
2023/03/05 12:18:36;;;;;;;1.17;0.82;;;6.20;99.90;;;;;;5065019;28;20044;-79
2023/03/05 12:21:28;;;;;;;2.45;0.80;;;6.30;99.90;;;;;;5061818;28;20045;-81
2023/03/05 12:24:00;;;;;;;3.53;0.60;;;6.30;99.90;;;;;;5036544;28;20102;-80
2023/03/05 12:27:02;;;;;;;2.40;0.90;;;6.40;99.90;;;;;;5052954;28;20044;-79
2023/03/05 12:29:39;;;;;;;2.95;0.70;;;6.70;99.90;;;;;;5037243;28;20048;-81
2023/03/05 12:32:27;;;;;;;2.28;0.80;;;6.80;99.90;;;;;;5063089;28;20385;-80
2023/03/05 12:35:22;;;;;;;2.15;0.60;;;7.00;99.90;;;;;;5057168;28;20329;-81
2023/03/05 12:37:47;;;;;;;1.90;0.60;;;6.70;99.90;;;;;;5060847;28;20055;-78
2023/03/05 12:40:21;;;;;;;3.38;0.68;;;7.60;99.90;;;;;;5042877;28;20110;-79
2023/03/05 12:43:01;;;;;;;2.90;0.70;;;7.50;99.90;;;;;;5054352;28;20064;-78
2023/03/05 12:45:30;;;;;;;1.85;0.82;;;7.50;99.90;;;;;;5049463;28;20056;-77
2023/03/05 12:47:56;;;;;;;3.60;0.90;;;7.30;99.90;;;;;;5043059;28;20052;-78
2023/03/05 12:50:28;;;;;;;3.80;0.90;;;7.00;99.90;;;;;;5055241;28;20049;-77
2023/03/05 12:53:12;;;;;;;2.70;0.80;;;6.70;99.90;;;;;;5061217;28;20127;-78
2023/03/05 12:55:44;;;;;;;1.73;0.75;;;6.70;99.90;;;;;;5041798;28;20033;-77
2023/03/05 12:58:29;;;;;;;1.42;0.80;;;7.20;99.90;;;;;;5064290;28;20149;-78
2023/03/05 13:01:02;;;;;;;1.85;0.70;;;7.60;99.90;;;;;;5045202;28;20055;-80
2023/03/05 13:03:35;;;;;;;2.28;1.20;;;7.90;99.90;;;;;;5056816;28;20044;-78
2023/03/05 13:06:06;;;;;;;2.80;0.90;;;8.00;99.90;;;;;;5076209;28;20044;-80
2023/03/05 13:08:34;;;;;;;1.20;0.52;;;7.50;99.90;;;;;;5054830;28;20139;-79
2023/03/05 13:11:03;;;;;;;2.75;0.88;;;7.10;99.90;;;;;;5055465;28;20056;-79